sensor_id;sensor_type;location;lat;lon;timestamp;pressure;altitude;pressure_sealevel;temperature;humidity
77574;BME280;66710;48.868;9.080;2023-02-21T00:01:32;98517.44;;;4.39;62.10
77574;BME280;66710;48.868;9.080;2023-02-21T00:04:16;98514.38;;;4.61;61.99
77574;BME280;66710;48.868;9.080;2023-02-21T00:07:00;98508.19;;;4.53;62.05
77574;BME280;66710;48.868;9.080;2023-02-21T00:09:44;98517.13;;;4.54;61.74
77574;BME280;66710;48.868;9.080;2023-02-21T00:12:28;98512.00;;;4.46;61.95
77574;BME280;66710;48.868;9.080;2023-02-21T00:15:12;98506.44;;;4.41;62.84
77574;BME280;66710;48.868;9.080;2023-02-21T00:17:56;98503.31;;;4.44;61.96
77574;BME280;66710;48.868;9.080;2023-02-21T00:20:40;98503.59;;;4.35;63.14
77574;BME280;66710;48.868;9.080;2023-02-21T00:23:24;98504.84;;;4.33;63.39
77574;BME280;66710;48.868;9.080;2023-02-21T00:26:08;98506.84;;;4.44;63.53
77574;BME280;66710;48.868;9.080;2023-02-21T00:28:52;98502.75;;;4.35;63.56
77574;BME280;66710;48.868;9.080;2023-02-21T00:31:36;98494.13;;;4.26;64.02
77574;BME280;66710;48.868;9.080;2023-02-21T00:34:20;98496.44;;;4.23;63.73
77574;BME280;66710;48.868;9.080;2023-02-21T00:37:04;98501.81;;;4.23;64.44
77574;BME280;66710;48.868;9.080;2023-02-21T00:39:48;98494.38;;;4.18;64.36
77574;BME280;66710;48.868;9.080;2023-02-21T00:42:32;98484.88;;;4.15;64.33
77574;BME280;66710;48.868;9.080;2023-02-21T00:45:16;98490.72;;;4.06;64.78
77574;BME280;66710;48.868;9.080;2023-02-21T00:47:59;98486.78;;;4.08;64.34
77574;BME280;66710;48.868;9.080;2023-02-21T00:50:43;98488.66;;;4.08;65.03
77574;BME280;66710;48.868;9.080;2023-02-21T00:53:27;98488.50;;;4.03;64.99
77574;BME280;66710;48.868;9.080;2023-02-21T00:56:11;98476.69;;;3.97;64.98
77574;BME280;66710;48.868;9.080;2023-02-21T00:58:55;98480.22;;;3.97;64.85
77574;BME280;66710;48.868;9.080;2023-02-21T01:01:39;98484.78;;;3.97;64.94
77574;BME280;66710;48.868;9.080;2023-02-21T01:04:23;98474.44;;;3.94;65.40
77574;BME280;66710;48.868;9.080;2023-02-21T01:07:07;98473.00;;;3.91;65.73
77574;BME280;66710;48.868;9.080;2023-02-21T01:09:51;98480.47;;;3.89;66.24
77574;BME280;66710;48.868;9.080;2023-02-21T01:12:36;98477.56;;;3.91;66.09
77574;BME280;66710;48.868;9.080;2023-02-21T01:15:20;98470.06;;;3.99;66.76
77574;BME280;66710;48.868;9.080;2023-02-21T01:18:04;98475.84;;;4.03;65.91
77574;BME280;66710;48.868;9.080;2023-02-21T01:20:47;98477.94;;;4.01;65.66
77574;BME280;66710;48.868;9.080;2023-02-21T01:23:32;98476.94;;;3.95;66.12
77574;BME280;66710;48.868;9.080;2023-02-21T01:26:17;98479.06;;;3.87;66.71
77574;BME280;66710;48.868;9.080;2023-02-21T01:29:01;98477.91;;;3.76;66.24
77574;BME280;66710;48.868;9.080;2023-02-21T01:31:44;98475.19;;;3.76;66.21
77574;BME280;66710;48.868;9.080;2023-02-21T01:34:28;98471.78;;;3.87;67.00
77574;BME280;66710;48.868;9.080;2023-02-21T01:37:12;98464.81;;;3.79;66.54
77574;BME280;66710;48.868;9.080;2023-02-21T01:39:56;98472.63;;;3.88;66.56
77574;BME280;66710;48.868;9.080;2023-02-21T01:42:40;98464.09;;;3.91;67.05
77574;BME280;66710;48.868;9.080;2023-02-21T01:45:40;98463.94;;;3.86;66.37
77574;BME280;66710;48.868;9.080;2023-02-21T01:48:26;98458.06;;;3.95;66.72
77574;BME280;66710;48.868;9.080;2023-02-21T01:51:13;98460.31;;;3.98;66.99
77574;BME280;66710;48.868;9.080;2023-02-21T01:53:58;98456.63;;;3.93;67.11
77574;BME280;66710;48.868;9.080;2023-02-21T01:56:42;98452.50;;;3.90;67.32
77574;BME280;66710;48.868;9.080;2023-02-21T01:59:27;98460.84;;;3.82;67.73
77574;BME280;66710;48.868;9.080;2023-02-21T02:05:06;98452.38;;;3.78;67.82
77574;BME280;66710;48.868;9.080;2023-02-21T02:07:51;98457.81;;;3.97;67.31
77574;BME280;66710;48.868;9.080;2023-02-21T02:10:36;98456.53;;;4.06;67.36
77574;BME280;66710;48.868;9.080;2023-02-21T02:16:17;98446.19;;;4.03;67.40
77574;BME280;66710;48.868;9.080;2023-02-21T02:24:44;98442.59;;;4.09;66.79
77574;BME280;66710;48.868;9.080;2023-02-21T02:27:45;98431.03;;;4.02;67.99
77574;BME280;66710;48.868;9.080;2023-02-21T02:30:24;98434.66;;;3.89;68.20
77574;BME280;66710;48.868;9.080;2023-02-21T02:36:08;98438.13;;;3.71;69.15
77574;BME280;66710;48.868;9.080;2023-02-21T02:38:40;98435.66;;;3.95;67.63
77574;BME280;66710;48.868;9.080;2023-02-21T02:41:38;98426.88;;;4.06;66.29
77574;BME280;66710;48.868;9.080;2023-02-21T02:44:14;98437.53;;;3.94;66.95
77574;BME280;66710;48.868;9.080;2023-02-21T02:46:44;98438.25;;;4.08;66.91
77574;BME280;66710;48.868;9.080;2023-02-21T02:49:16;98428.47;;;4.14;66.77
77574;BME280;66710;48.868;9.080;2023-02-21T02:51:43;98420.44;;;4.07;66.55
77574;BME280;66710;48.868;9.080;2023-02-21T02:54:08;98423.41;;;3.99;67.80
77574;BME280;66710;48.868;9.080;2023-02-21T02:56:33;98424.72;;;3.90;66.97
77574;BME280;66710;48.868;9.080;2023-02-21T02:59:07;98429.13;;;4.09;67.03
77574;BME280;66710;48.868;9.080;2023-02-21T03:02:13;98431.72;;;4.23;66.59
77574;BME280;66710;48.868;9.080;2023-02-21T03:04:53;98430.91;;;4.22;66.54
77574;BME280;66710;48.868;9.080;2023-02-21T03:11:13;98431.38;;;4.12;66.36
77574;BME280;66710;48.868;9.080;2023-02-21T03:13:46;98422.84;;;4.41;65.80
77574;BME280;66710;48.868;9.080;2023-02-21T03:16:22;98430.53;;;4.37;65.63
77574;BME280;66710;48.868;9.080;2023-02-21T03:18:53;98432.25;;;4.31;66.01
77574;BME280;66710;48.868;9.080;2023-02-21T03:21:25;98431.72;;;4.23;65.95
77574;BME280;66710;48.868;9.080;2023-02-21T03:23:53;98430.91;;;4.22;66.16
77574;BME280;66710;48.868;9.080;2023-02-21T03:26:21;98428.63;;;4.19;66.14
77574;BME280;66710;48.868;9.080;2023-02-21T03:28:47;98430.56;;;4.12;66.13
77574;BME280;66710;48.868;9.080;2023-02-21T03:31:15;98430.41;;;4.07;66.09
77574;BME280;66710;48.868;9.080;2023-02-21T03:33:42;98425.16;;;4.12;64.41
77574;BME280;66710;48.868;9.080;2023-02-21T03:36:09;98416.56;;;4.22;65.96
77574;BME280;66710;48.868;9.080;2023-02-21T03:38:34;98424.06;;;4.20;66.54
77574;BME280;66710;48.868;9.080;2023-02-21T03:41:00;98423.41;;;3.99;67.00
77574;BME280;66710;48.868;9.080;2023-02-21T03:43:25;98429.16;;;3.77;67.79
77574;BME280;66710;48.868;9.080;2023-02-21T03:45:51;98432.94;;;3.70;68.23
77574;BME280;66710;48.868;9.080;2023-02-21T03:48:16;98428.59;;;3.69;68.31
77574;BME280;66710;48.868;9.080;2023-02-21T03:50:41;98438.75;;;3.67;68.52
77574;BME280;66710;48.868;9.080;2023-02-21T03:53:08;98429.50;;;3.56;68.04
77574;BME280;66710;48.868;9.080;2023-02-21T03:55:34;98434.75;;;3.44;69.17
77574;BME280;66710;48.868;9.080;2023-02-21T03:57:59;98435.41;;;3.39;68.67
77574;BME280;66710;48.868;9.080;2023-02-21T04:00:24;98433.38;;;3.28;69.40
77574;BME280;66710;48.868;9.080;2023-02-21T04:02:50;98426.16;;;3.22;68.76
77574;BME280;66710;48.868;9.080;2023-02-21T04:05:15;98431.22;;;3.44;68.33
77574;BME280;66710;48.868;9.080;2023-02-21T04:07:40;98432.09;;;3.76;68.08
77574;BME280;66710;48.868;9.080;2023-02-21T04:10:06;98423.94;;;3.83;67.34
77574;BME280;66710;48.868;9.080;2023-02-21T04:12:31;98429.03;;;3.66;68.05
77574;BME280;66710;48.868;9.080;2023-02-21T04:14:57;98427.91;;;3.48;69.12
77574;BME280;66710;48.868;9.080;2023-02-21T04:17:23;98423.56;;;3.40;69.58
77574;BME280;66710;48.868;9.080;2023-02-21T04:19:48;98428.56;;;3.37;68.99
77574;BME280;66710;48.868;9.080;2023-02-21T04:22:13;98424.06;;;3.31;69.44
77574;BME280;66710;48.868;9.080;2023-02-21T04:24:39;98420.78;;;3.22;69.83
77574;BME280;66710;48.868;9.080;2023-02-21T04:27:04;98421.03;;;3.14;70.23
77574;BME280;66710;48.868;9.080;2023-02-21T04:29:29;98426.47;;;3.00;70.05
77574;BME280;66710;48.868;9.080;2023-02-21T04:31:55;98426.25;;;3.02;71.05
77574;BME280;66710;48.868;9.080;2023-02-21T04:34:21;98420.41;;;3.12;69.53
77574;BME280;66710;48.868;9.080;2023-02-21T04:36:46;98425.88;;;2.98;70.43
77574;BME280;66710;48.868;9.080;2023-02-21T04:39:11;98435.38;;;2.94;69.90
77574;BME280;66710;48.868;9.080;2023-02-21T04:41:37;98430.88;;;2.88;70.63
77574;BME280;66710;48.868;9.080;2023-02-21T04:44:03;98442.03;;;2.92;70.71
77574;BME280;66710;48.868;9.080;2023-02-21T04:46:28;98437.06;;;2.89;70.47
77574;BME280;66710;48.868;9.080;2023-02-21T04:48:53;98435.00;;;2.84;70.72
77574;BME280;66710;48.868;9.080;2023-02-21T04:51:21;98430.06;;;2.81;72.05
77574;BME280;66710;48.868;9.080;2023-02-21T04:53:48;98431.72;;;2.75;71.05
77574;BME280;66710;48.868;9.080;2023-02-21T04:56:14;98427.59;;;2.66;72.13
77574;BME280;66710;48.868;9.080;2023-02-21T04:58:41;98431.97;;;2.67;71.49
77574;BME280;66710;48.868;9.080;2023-02-21T05:01:07;98428.84;;;2.70;72.03
77574;BME280;66710;48.868;9.080;2023-02-21T05:03:34;98423.91;;;2.60;72.02
77574;BME280;66710;48.868;9.080;2023-02-21T05:06:00;98424.09;;;2.65;72.49
77574;BME280;66710;48.868;9.080;2023-02-21T05:08:25;98428.56;;;2.92;73.98
77574;BME280;66710;48.868;9.080;2023-02-21T05:10:50;98417.84;;;2.85;73.50
77574;BME280;66710;48.868;9.080;2023-02-21T05:13:16;98414.94;;;2.87;72.46
77574;BME280;66710;48.868;9.080;2023-02-21T05:15:41;98422.59;;;2.83;72.42
77574;BME280;66710;48.868;9.080;2023-02-21T05:18:07;98409.34;;;2.88;72.71
77574;BME280;66710;48.868;9.080;2023-02-21T05:20:32;98416.75;;;2.93;72.88
77574;BME280;66710;48.868;9.080;2023-02-21T05:22:57;98412.88;;;2.82;72.13
77574;BME280;66710;48.868;9.080;2023-02-21T05:25:23;98415.13;;;2.85;72.25
77574;BME280;66710;48.868;9.080;2023-02-21T05:27:50;98418.44;;;2.87;71.90
77574;BME280;66710;48.868;9.080;2023-02-21T05:30:18;98412.66;;;2.83;73.25
77574;BME280;66710;48.868;9.080;2023-02-21T05:32:43;98416.63;;;2.81;73.48
77574;BME280;66710;48.868;9.080;2023-02-21T05:35:09;98417.44;;;2.75;72.61
77574;BME280;66710;48.868;9.080;2023-02-21T05:37:35;98408.78;;;2.59;72.88
77574;BME280;66710;48.868;9.080;2023-02-21T05:40:00;98408.16;;;2.64;72.93
77574;BME280;66710;48.868;9.080;2023-02-21T05:42:25;98409.22;;;2.56;72.99
77574;BME280;66710;48.868;9.080;2023-02-21T05:44:51;98408.63;;;2.54;72.69
77574;BME280;66710;48.868;9.080;2023-02-21T05:47:16;98407.16;;;2.52;72.70
77574;BME280;66710;48.868;9.080;2023-02-21T05:49:42;98401.78;;;2.58;72.32
77574;BME280;66710;48.868;9.080;2023-02-21T05:52:10;98405.47;;;2.64;72.55
77574;BME280;66710;48.868;9.080;2023-02-21T05:54:36;98405.41;;;2.84;72.05
77574;BME280;66710;48.868;9.080;2023-02-21T05:57:01;98413.94;;;2.74;72.28
77574;BME280;66710;48.868;9.080;2023-02-21T05:59:26;98412.53;;;2.58;72.18
77574;BME280;66710;48.868;9.080;2023-02-21T06:01:52;98412.13;;;2.48;72.64
77574;BME280;66710;48.868;9.080;2023-02-21T06:04:17;98411.94;;;2.36;73.28
77574;BME280;66710;48.868;9.080;2023-02-21T06:06:43;98402.19;;;2.49;73.13
77574;BME280;66710;48.868;9.080;2023-02-21T06:09:09;98401.59;;;2.46;72.99
77574;BME280;66710;48.868;9.080;2023-02-21T06:11:36;98399.50;;;2.49;72.72
77574;BME280;66710;48.868;9.080;2023-02-21T06:14:03;98395.59;;;2.58;73.23
77574;BME280;66710;48.868;9.080;2023-02-21T06:16:33;98403.66;;;2.58;73.54
77574;BME280;66710;48.868;9.080;2023-02-21T06:18:59;98411.06;;;2.62;72.15
77574;BME280;66710;48.868;9.080;2023-02-21T06:21:25;98415.63;;;2.62;72.67
77574;BME280;66710;48.868;9.080;2023-02-21T06:23:50;98417.09;;;2.58;73.40
77574;BME280;66710;48.868;9.080;2023-02-21T06:26:17;98419.34;;;2.61;72.71
77574;BME280;66710;48.868;9.080;2023-02-21T06:28:43;98411.69;;;2.64;73.27
77574;BME280;66710;48.868;9.080;2023-02-21T06:31:08;98421.41;;;2.59;72.30
77574;BME280;66710;48.868;9.080;2023-02-21T06:33:34;98417.91;;;2.65;72.43
77574;BME280;66710;48.868;9.080;2023-02-21T06:36:07;98418.53;;;2.54;72.65
77574;BME280;66710;48.868;9.080;2023-02-21T06:38:34;98413.81;;;2.49;72.95
77574;BME280;66710;48.868;9.080;2023-02-21T06:41:04;98416.09;;;2.45;72.57
77574;BME280;66710;48.868;9.080;2023-02-21T06:43:30;98408.03;;;2.45;73.33
77574;BME280;66710;48.868;9.080;2023-02-21T06:45:55;98412.94;;;2.49;73.26
77574;BME280;66710;48.868;9.080;2023-02-21T06:48:21;98420.19;;;2.55;72.88
77574;BME280;66710;48.868;9.080;2023-02-21T06:50:46;98417.22;;;2.83;71.85
77574;BME280;66710;48.868;9.080;2023-02-21T06:53:11;98416.84;;;2.73;72.73
77574;BME280;66710;48.868;9.080;2023-02-21T06:55:37;98416.41;;;2.76;71.88
77574;BME280;66710;48.868;9.080;2023-02-21T06:58:02;98417.63;;;2.80;71.53
77574;BME280;66710;48.868;9.080;2023-02-21T07:00:27;98424.47;;;2.82;72.03
77574;BME280;66710;48.868;9.080;2023-02-21T07:02:53;98424.69;;;2.81;72.00
77574;BME280;66710;48.868;9.080;2023-02-21T07:05:18;98424.25;;;2.84;71.68
77574;BME280;66710;48.868;9.080;2023-02-21T07:07:44;98426.31;;;2.89;71.31
77574;BME280;66710;48.868;9.080;2023-02-21T07:10:09;98425.88;;;2.92;71.60
77574;BME280;66710;48.868;9.080;2023-02-21T07:12:35;98427.91;;;3.03;71.89
77574;BME280;66710;48.868;9.080;2023-02-21T07:15:00;98430.34;;;3.18;70.61
77574;BME280;66710;48.868;9.080;2023-02-21T07:17:26;98422.38;;;3.30;71.12
77574;BME280;66710;48.868;9.080;2023-02-21T07:19:51;98424.03;;;3.37;70.54
77574;BME280;66710;48.868;9.080;2023-02-21T07:22:16;98425.19;;;3.55;70.56
77574;BME280;66710;48.868;9.080;2023-02-21T07:24:43;98420.69;;;3.74;70.14
77574;BME280;66710;48.868;9.080;2023-02-21T07:27:09;98425.38;;;3.85;69.53
77574;BME280;66710;48.868;9.080;2023-02-21T07:29:34;98413.84;;;4.03;69.11
77574;BME280;66710;48.868;9.080;2023-02-21T07:32:00;98418.44;;;4.21;68.43
77574;BME280;66710;48.868;9.080;2023-02-21T07:34:27;98420.22;;;4.09;68.87
77574;BME280;66710;48.868;9.080;2023-02-21T07:36:52;98425.00;;;4.32;68.23
77574;BME280;66710;48.868;9.080;2023-02-21T07:39:17;98421.06;;;4.53;67.80
77574;BME280;66710;48.868;9.080;2023-02-21T07:41:43;98423.41;;;4.68;67.60
77574;BME280;66710;48.868;9.080;2023-02-21T07:44:08;98425.88;;;4.88;67.49
77574;BME280;66710;48.868;9.080;2023-02-21T07:46:34;98420.16;;;5.15;67.27
77574;BME280;66710;48.868;9.080;2023-02-21T07:48:59;98417.81;;;5.18;66.24
77574;BME280;66710;48.868;9.080;2023-02-21T07:51:29;98420.22;;;5.26;67.30
77574;BME280;66710;48.868;9.080;2023-02-21T07:53:54;98418.78;;;5.42;66.55
77574;BME280;66710;48.868;9.080;2023-02-21T07:56:19;98417.03;;;5.48;66.07
77574;BME280;66710;48.868;9.080;2023-02-21T07:58:45;98408.25;;;5.64;65.68
77574;BME280;66710;48.868;9.080;2023-02-21T08:01:11;98421.53;;;5.96;65.02
77574;BME280;66710;48.868;9.080;2023-02-21T08:03:37;98414.03;;;6.10;64.30
77574;BME280;66710;48.868;9.080;2023-02-21T08:06:05;98421.13;;;6.35;63.90
77574;BME280;66710;48.868;9.080;2023-02-21T08:08:31;98428.16;;;6.12;64.70
77574;BME280;66710;48.868;9.080;2023-02-21T08:10:57;98417.09;;;6.49;64.01
77574;BME280;66710;48.868;9.080;2023-02-21T08:13:22;98423.22;;;6.68;62.92
77574;BME280;66710;48.868;9.080;2023-02-21T08:15:47;98417.88;;;6.97;62.27
77574;BME280;66710;48.868;9.080;2023-02-21T08:18:15;98424.84;;;6.93;62.60
77574;BME280;66710;48.868;9.080;2023-02-21T08:20:43;98425.19;;;6.96;62.00
77574;BME280;66710;48.868;9.080;2023-02-21T08:23:08;98422.84;;;7.29;62.19
77574;BME280;66710;48.868;9.080;2023-02-21T08:25:33;98431.88;;;7.75;61.28
77574;BME280;66710;48.868;9.080;2023-02-21T08:27:59;98427.03;;;7.94;60.51
77574;BME280;66710;48.868;9.080;2023-02-21T08:30:24;98434.94;;;7.95;59.81
77574;BME280;66710;48.868;9.080;2023-02-21T08:32:49;98430.97;;;8.49;58.95
77574;BME280;66710;48.868;9.080;2023-02-21T08:35:17;98427.81;;;8.57;59.43
77574;BME280;66710;48.868;9.080;2023-02-21T08:37:47;98422.56;;;8.33;59.36
77574;BME280;66710;48.868;9.080;2023-02-21T08:40:14;98427.06;;;9.23;57.39
77574;BME280;66710;48.868;9.080;2023-02-21T08:42:39;98426.63;;;9.53;55.27
77574;BME280;66710;48.868;9.080;2023-02-21T08:45:06;98424.59;;;9.65;56.04
77574;BME280;66710;48.868;9.080;2023-02-21T08:47:34;98428.84;;;9.83;56.32
77574;BME280;66710;48.868;9.080;2023-02-21T08:50:00;98425.84;;;10.12;54.58
77574;BME280;66710;48.868;9.080;2023-02-21T08:52:26;98426.53;;;10.30;53.05
77574;BME280;66710;48.868;9.080;2023-02-21T08:54:51;98416.22;;;10.69;53.67
77574;BME280;66710;48.868;9.080;2023-02-21T08:57:16;98424.34;;;10.59;53.44
77574;BME280;66710;48.868;9.080;2023-02-21T08:59:43;98424.50;;;10.90;52.41
77574;BME280;66710;48.868;9.080;2023-02-21T09:02:20;98417.94;;;11.44;51.10
77574;BME280;66710;48.868;9.080;2023-02-21T09:04:46;98422.09;;;11.67;49.48
77574;BME280;66710;48.868;9.080;2023-02-21T09:07:13;98418.53;;;11.71;50.16
77574;BME280;66710;48.868;9.080;2023-02-21T09:09:38;98417.81;;;11.97;49.11
77574;BME280;66710;48.868;9.080;2023-02-21T09:12:04;98418.91;;;12.01;48.64
77574;BME280;66710;48.868;9.080;2023-02-21T09:14:36;98417.00;;;12.42;48.22
77574;BME280;66710;48.868;9.080;2023-02-21T09:17:03;98422.94;;;11.83;50.24
77574;BME280;66710;48.868;9.080;2023-02-21T09:19:29;98428.47;;;12.24;50.33
77574;BME280;66710;48.868;9.080;2023-02-21T09:21:54;98415.84;;;12.84;47.65
77574;BME280;66710;48.868;9.080;2023-02-21T09:24:20;98423.84;;;12.60;47.64
77574;BME280;66710;48.868;9.080;2023-02-21T09:26:50;98414.13;;;13.14;46.67
77574;BME280;66710;48.868;9.080;2023-02-21T09:29:19;98411.66;;;13.78;45.49
77574;BME280;66710;48.868;9.080;2023-02-21T09:31:45;98406.66;;;13.40;45.58
77574;BME280;66710;48.868;9.080;2023-02-21T09:34:10;98408.06;;;13.33;47.05
77574;BME280;66710;48.868;9.080;2023-02-21T09:36:36;98410.28;;;13.80;45.00
77574;BME280;66710;48.868;9.080;2023-02-21T09:39:01;98409.41;;;13.40;44.66
77574;BME280;66710;48.868;9.080;2023-02-21T09:41:32;98418.44;;;13.91;43.76
77574;BME280;66710;48.868;9.080;2023-02-21T09:43:58;98413.63;;;13.67;45.52
77574;BME280;66710;48.868;9.080;2023-02-21T09:48:56;98410.59;;;13.74;44.09
77574;BME280;66710;48.868;9.080;2023-02-21T09:51:22;98411.44;;;14.09;46.41
77574;BME280;66710;48.868;9.080;2023-02-21T09:53:52;98404.91;;;15.22;43.08
77574;BME280;66710;48.868;9.080;2023-02-21T09:56:24;98408.03;;;14.86;41.66
77574;BME280;66710;48.868;9.080;2023-02-21T09:58:52;98400.81;;;15.19;41.88
77574;BME280;66710;48.868;9.080;2023-02-21T10:01:46;98396.94;;;15.63;39.65
77574;BME280;66710;48.868;9.080;2023-02-21T10:04:20;98405.75;;;14.69;41.06
77574;BME280;66710;48.868;9.080;2023-02-21T10:07:11;98393.97;;;15.41;40.66
77574;BME280;66710;48.868;9.080;2023-02-21T10:09:54;98393.66;;;16.04;39.22
77574;BME280;66710;48.868;9.080;2023-02-21T10:12:27;98399.81;;;16.62;38.96
77574;BME280;66710;48.868;9.080;2023-02-21T10:17:50;98399.59;;;15.92;40.07
77574;BME280;66710;48.868;9.080;2023-02-21T10:20:25;98390.81;;;16.42;40.93
77574;BME280;66710;48.868;9.080;2023-02-21T10:22:53;98382.50;;;15.33;40.71
77574;BME280;66710;48.868;9.080;2023-02-21T10:25:31;98383.38;;;15.53;40.57
77574;BME280;66710;48.868;9.080;2023-02-21T10:27:58;98378.47;;;15.50;41.37
77574;BME280;66710;48.868;9.080;2023-02-21T10:30:31;98378.19;;;15.89;39.96
77574;BME280;66710;48.868;9.080;2023-02-21T10:32:57;98388.50;;;15.98;40.09
77574;BME280;66710;48.868;9.080;2023-02-21T10:35:22;98392.50;;;16.71;39.19
77574;BME280;66710;48.868;9.080;2023-02-21T10:37:56;98380.28;;;15.79;40.62
77574;BME280;66710;48.868;9.080;2023-02-21T10:40:45;98394.53;;;16.65;37.04
77574;BME280;66710;48.868;9.080;2023-02-21T10:43:15;98386.31;;;16.33;37.29
77574;BME280;66710;48.868;9.080;2023-02-21T10:46:01;98388.63;;;15.06;38.74
77574;BME280;66710;48.868;9.080;2023-02-21T10:48:34;98382.72;;;17.62;36.42
77574;BME280;66710;48.868;9.080;2023-02-21T10:51:08;98377.06;;;17.81;36.98
77574;BME280;66710;48.868;9.080;2023-02-21T10:53:45;98378.00;;;18.13;35.99
77574;BME280;66710;48.868;9.080;2023-02-21T10:59:05;98365.34;;;17.75;37.54
77574;BME280;66710;48.868;9.080;2023-02-21T11:06:50;98359.06;;;17.84;36.82
77574;BME280;66710;48.868;9.080;2023-02-21T11:12:16;98360.28;;;18.59;34.99
77574;BME280;66710;48.868;9.080;2023-02-21T11:14:44;98352.41;;;18.21;36.21
77574;BME280;66710;48.868;9.080;2023-02-21T11:17:27;98357.28;;;18.78;36.26
77574;BME280;66710;48.868;9.080;2023-02-21T11:20:19;98347.38;;;18.46;36.16
77574;BME280;66710;48.868;9.080;2023-02-21T11:22:44;98344.69;;;17.50;37.15
77574;BME280;66710;48.868;9.080;2023-02-21T11:27:36;98346.09;;;17.84;37.91
77574;BME280;66710;48.868;9.080;2023-02-21T11:30:22;98333.31;;;18.87;34.96
77574;BME280;66710;48.868;9.080;2023-02-21T11:32:51;98332.81;;;18.54;36.16
77574;BME280;66710;48.868;9.080;2023-02-21T11:37:58;98320.88;;;19.16;34.74
77574;BME280;66710;48.868;9.080;2023-02-21T11:40:31;98317.97;;;19.21;36.31
77574;BME280;66710;48.868;9.080;2023-02-21T11:43:23;98314.47;;;19.56;34.77
77574;BME280;66710;48.868;9.080;2023-02-21T11:48:38;98296.25;;;20.16;32.07
77574;BME280;66710;48.868;9.080;2023-02-21T11:51:28;98301.63;;;19.68;33.57
77574;BME280;66710;48.868;9.080;2023-02-21T11:53:54;98298.38;;;19.66;33.14
77574;BME280;66710;48.868;9.080;2023-02-21T11:59:07;98289.13;;;18.47;34.06
77574;BME280;66710;48.868;9.080;2023-02-21T12:04:39;98274.28;;;20.02;31.50
77574;BME280;66710;48.868;9.080;2023-02-21T12:10:12;98264.97;;;20.71;32.53
77574;BME280;66710;48.868;9.080;2023-02-21T12:15:57;98253.38;;;21.08;31.01
77574;BME280;66710;48.868;9.080;2023-02-21T12:21:48;98245.81;;;20.49;31.57
77574;BME280;66710;48.868;9.080;2023-02-21T12:24:45;98237.84;;;20.86;30.78
77574;BME280;66710;48.868;9.080;2023-02-21T12:30:34;98227.03;;;20.24;31.89
77574;BME280;66710;48.868;9.080;2023-02-21T12:36:05;98222.34;;;20.63;33.28
77574;BME280;66710;48.868;9.080;2023-02-21T12:47:27;98199.16;;;21.94;29.29
77574;BME280;66710;48.868;9.080;2023-02-21T12:50:05;98197.94;;;20.48;30.78
77574;BME280;66710;48.868;9.080;2023-02-21T12:52:39;98196.59;;;21.56;30.26
77574;BME280;66710;48.868;9.080;2023-02-21T12:55:23;98191.34;;;22.21;29.48
77574;BME280;66710;48.868;9.080;2023-02-21T13:00:35;98177.03;;;22.81;28.82
77574;BME280;66710;48.868;9.080;2023-02-21T13:06:25;98171.09;;;21.63;30.50
77574;BME280;66710;48.868;9.080;2023-02-21T13:09:05;98167.06;;;22.30;28.84
77574;BME280;66710;48.868;9.080;2023-02-21T13:11:38;98156.44;;;20.78;30.45
77574;BME280;66710;48.868;9.080;2023-02-21T13:14:15;98151.78;;;21.33;29.95
77574;BME280;66710;48.868;9.080;2023-02-21T13:16:42;98147.09;;;21.25;30.43
77574;BME280;66710;48.868;9.080;2023-02-21T13:19:10;98146.59;;;22.72;28.76
77574;BME280;66710;48.868;9.080;2023-02-21T13:24:55;98138.97;;;21.07;30.01
77574;BME280;66710;48.868;9.080;2023-02-21T13:27:51;98137.66;;;22.05;31.63
77574;BME280;66710;48.868;9.080;2023-02-21T13:30:40;98120.69;;;22.06;29.63
77574;BME280;66710;48.868;9.080;2023-02-21T13:33:43;98123.50;;;21.39;30.59
77574;BME280;66710;48.868;9.080;2023-02-21T13:36:32;98118.53;;;20.70;31.28
77574;BME280;66710;48.868;9.080;2023-02-21T13:39:20;98113.91;;;20.82;30.82
77574;BME280;66710;48.868;9.080;2023-02-21T13:41:53;98112.25;;;21.24;30.14
77574;BME280;66710;48.868;9.080;2023-02-21T14:08:17;98070.59;;;23.49;28.27
77574;BME280;66710;48.868;9.080;2023-02-21T14:13:22;98070.56;;;21.20;29.89
77574;BME280;66710;48.868;9.080;2023-02-21T14:15:55;98064.81;;;21.71;29.84
77574;BME280;66710;48.868;9.080;2023-02-21T14:18:31;98060.22;;;22.37;28.43
77574;BME280;66710;48.868;9.080;2023-02-21T14:21:11;98053.34;;;22.22;29.83
77574;BME280;66710;48.868;9.080;2023-02-21T14:23:45;98051.53;;;21.76;29.57
77574;BME280;66710;48.868;9.080;2023-02-21T14:26:33;98048.81;;;23.07;28.67
77574;BME280;66710;48.868;9.080;2023-02-21T14:31:50;98044.94;;;22.30;29.38
77574;BME280;66710;48.868;9.080;2023-02-21T14:34:21;98035.91;;;22.09;29.04
77574;BME280;66710;48.868;9.080;2023-02-21T14:36:49;98045.16;;;21.18;29.54
77574;BME280;66710;48.868;9.080;2023-02-21T14:39:16;98038.28;;;21.03;29.60
77574;BME280;66710;48.868;9.080;2023-02-21T14:47:00;98025.16;;;22.07;29.28
77574;BME280;66710;48.868;9.080;2023-02-21T14:49:55;98029.66;;;22.49;28.63
77574;BME280;66710;48.868;9.080;2023-02-21T14:55:10;98023.91;;;21.68;28.81
77574;BME280;66710;48.868;9.080;2023-02-21T14:58:05;98025.41;;;21.90;28.89
77574;BME280;66710;48.868;9.080;2023-02-21T15:00:47;98019.09;;;23.39;27.89
77574;BME280;66710;48.868;9.080;2023-02-21T15:03:23;98009.78;;;22.10;28.77
77574;BME280;66710;48.868;9.080;2023-02-21T15:08:26;98012.91;;;21.47;29.01
77574;BME280;66710;48.868;9.080;2023-02-21T15:10:57;98007.16;;;21.64;30.07
77574;BME280;66710;48.868;9.080;2023-02-21T15:13:32;98010.41;;;21.33;30.16
77574;BME280;66710;48.868;9.080;2023-02-21T15:16:06;98005.75;;;21.70;29.90
77574;BME280;66710;48.868;9.080;2023-02-21T15:18:34;98012.06;;;21.34;30.43
77574;BME280;66710;48.868;9.080;2023-02-21T15:21:07;98001.25;;;21.66;30.13
77574;BME280;66710;48.868;9.080;2023-02-21T15:23:41;98004.97;;;21.24;30.32
77574;BME280;66710;48.868;9.080;2023-02-21T15:26:22;98006.78;;;21.08;30.42
77574;BME280;66710;48.868;9.080;2023-02-21T15:29:13;98004.41;;;21.31;30.10
77574;BME280;66710;48.868;9.080;2023-02-21T15:34:20;97998.06;;;20.42;32.94
77574;BME280;66710;48.868;9.080;2023-02-21T15:36:51;97998.47;;;20.32;31.95
77574;BME280;66710;48.868;9.080;2023-02-21T15:39:32;98001.50;;;20.60;32.18